KFLL/FLL METAR and TAF weather

Enter ICAO airport designator
Station Type Date Time Source
KFLL METAR 2019/08/25 19:53 UTC NOAA

KFLL 251953Z 17007KT 10SM SCT027 SCT100 BKN250 31/24 A2991 RMK AO2 LTG DSNT N AND SE AND NW SLP128 CB DSNT SE AND S AND W-NW T03060244


Station Type Date Time Source
KFLL Decoded METAR 2019/08/25 19:53 UTC NOAA

Station name not available
Aug 25, 2019 - 03:53 PM EDT / 2019.08.25 1953 UTC
Wind: from the S (170 degrees) at 8 MPH (7 KT):0
Visibility: 10 mile(s):0
Sky conditions: mostly cloudy
Weather: Cumulonimbus clouds, lightning observed
Temperature: 87.1 F (30.6 C)
Heat index: 97.3 F (36.3 C):1
Dew Point: 75.9 F (24.4 C)
Relative Humidity: 69%
Pressure (altimeter): 29.91 in. Hg (1012 hPa)
ob: KFLL 251953Z 17007KT 10SM SCT027 SCT100 BKN250 31/24 A2991 RMK AO2 LTG DSNT N AND SE AND NW SLP128 CB DSNT SE AND S AND W-NW T03060244
cycle: 20

Station Type Date Time Source
KFLL TAF 2019/08/25 18:25 UTC NOAA

TAF KFLL 251721Z 2518/2624 17010KT P6SM VCTS SCT040CB BKN070 BKN250
TEMPO 2518/2520 5SM TSRA BKN025CB BKN050 OVC090
FM260000 24006KT P6SM FEW030 SCT080 BKN250
FM261400 19008KT P6SM VCSH SCT030 SCT070

Example: see airport list